createdAt,value
2023-03-17T00:02:03.758Z,100765.69
2023-03-17T00:04:33.427Z,100761.47
2023-03-17T00:07:02.825Z,100765.59
2023-03-17T00:09:34.822Z,100774.75
2023-03-17T00:12:04.239Z,100766.38
2023-03-17T00:14:33.621Z,100773.97
2023-03-17T00:17:02.996Z,100766.97
2023-03-17T00:19:33.639Z,100765.09
2023-03-17T00:22:06.061Z,100755.78
2023-03-17T00:24:38.113Z,100742.50
2023-03-17T00:27:13.462Z,100749.06
2023-03-17T00:29:43.884Z,100767.66
2023-03-17T00:32:20.288Z,100757.72
2023-03-17T00:34:49.755Z,100775.22
2023-03-17T00:37:20.109Z,100760.16
2023-03-17T00:39:52.127Z,100760.28
2023-03-17T00:42:21.741Z,100749.53
2023-03-17T00:44:51.287Z,100750.66
2023-03-17T00:47:20.756Z,100736.41
2023-03-17T00:49:50.673Z,100739.72
2023-03-17T00:52:20.133Z,100710.94
2023-03-17T00:54:52.260Z,100703.47
2023-03-17T00:57:21.776Z,100688.53
2023-03-17T00:59:51.419Z,100693.63
2023-03-17T01:02:20.932Z,100687.16
2023-03-17T01:04:59.870Z,100703.38
2023-03-17T01:07:33.393Z,100692.06
2023-03-17T01:10:06.650Z,100686.16
2023-03-17T01:12:36.140Z,100692.63
2023-03-17T01:15:06.101Z,100687.06
2023-03-17T01:17:35.495Z,100695.41
2023-03-17T01:20:05.675Z,100684.41
2023-03-17T01:22:35.310Z,100687.34
2023-03-17T01:25:08.369Z,100700.91
2023-03-17T01:27:37.951Z,100695.47
2023-03-17T01:30:09.218Z,100695.81
2023-03-17T01:32:39.392Z,100675.44
2023-03-17T01:35:10.381Z,100678.09
2023-03-17T01:37:39.854Z,100686.25
2023-03-17T01:40:17.444Z,100669.75
2023-03-17T01:42:48.215Z,100662.88
2023-03-17T01:45:49.172Z,100665.41
2023-03-17T01:48:18.837Z,100664.13
2023-03-17T01:50:49.927Z,100649.41
2023-03-17T01:53:20.433Z,100618.81
2023-03-17T01:55:53.472Z,100622.75
2023-03-17T01:58:24.616Z,100610.47
2023-03-17T02:00:54.177Z,100610.69
2023-03-17T02:03:24.038Z,100609.78
2023-03-17T02:05:54.186Z,100613.97
2023-03-17T02:08:23.728Z,100592.06
2023-03-17T02:10:56.456Z,100586.09
2023-03-17T02:13:27.041Z,100581.97
2023-03-17T02:15:57.297Z,100562.34
2023-03-17T02:18:27.168Z,100561.34
2023-03-17T02:21:32.880Z,100549.75
2023-03-17T02:24:07.236Z,100541.28
2023-03-17T02:26:38.812Z,100541.78
2023-03-17T02:29:08.458Z,100537.75
2023-03-17T02:31:37.950Z,100540.72
2023-03-17T02:34:07.711Z,100548.19
2023-03-17T02:36:37.665Z,100556.31
2023-03-17T02:39:09.898Z,100555.06
2023-03-17T02:41:39.328Z,100560.63
2023-03-17T02:44:08.932Z,100570.44
2023-03-17T02:46:38.420Z,100558.59
2023-03-17T02:49:08.417Z,100548.88
2023-03-17T02:51:37.962Z,100546.31
2023-03-17T02:54:10.169Z,100552.13
2023-03-17T02:56:39.670Z,100548.88
2023-03-17T02:59:09.492Z,100541.78
2023-03-17T03:01:39.450Z,100536.09
2023-03-17T03:04:09.832Z,100531.69
2023-03-17T03:06:39.930Z,100537.47
2023-03-17T03:09:12.296Z,100531.69
2023-03-17T03:11:42.707Z,100530.41
2023-03-17T03:14:12.692Z,100535.59
2023-03-17T03:16:43.488Z,100534.41
2023-03-17T03:19:12.940Z,100530.91
2023-03-17T03:21:42.711Z,100538.84
2023-03-17T03:24:14.805Z,100533.56
2023-03-17T03:26:44.211Z,100543.47
2023-03-17T03:29:13.689Z,100541.09
2023-03-17T03:31:43.120Z,100543.88
2023-03-17T03:34:12.568Z,100536.91
2023-03-17T03:36:41.960Z,100546.78
2023-03-17T03:39:14.592Z,100530.09
2023-03-17T03:41:44.053Z,100525.28
2023-03-17T03:44:13.476Z,100527.16
2023-03-17T03:46:42.908Z,100527.75
2023-03-17T03:49:12.401Z,100521.56
2023-03-17T03:51:41.834Z,100499.84
2023-03-17T03:54:13.821Z,100489.81
2023-03-17T03:56:43.257Z,100471.59
2023-03-17T03:59:12.790Z,100446.81
2023-03-17T04:01:42.166Z,100445.69
2023-03-17T04:04:11.628Z,100455.88
2023-03-17T04:06:41.166Z,100462.75
2023-03-17T04:09:10.666Z,100466.66
2023-03-17T04:11:42.710Z,100487.50
2023-03-17T04:14:12.693Z,100486.13
2023-03-17T04:16:43.627Z,100482.38
2023-03-17T04:19:13.830Z,100469.03
2023-03-17T04:21:43.239Z,100461.84
2023-03-17T04:24:12.751Z,100457.16
2023-03-17T04:26:44.752Z,100453.91
2023-03-17T04:29:15.808Z,100453.63
2023-03-17T04:31:45.267Z,100454.47
2023-03-17T04:34:18.717Z,100452.94
2023-03-17T04:36:49.443Z,100455.97
2023-03-17T04:39:19.281Z,100468.16
2023-03-17T04:41:51.338Z,100464.53
2023-03-17T04:44:20.799Z,100464.31
2023-03-17T04:46:50.234Z,100464.53
2023-03-17T04:49:19.662Z,100466.06
2023-03-17T04:51:49.217Z,100459.69
2023-03-17T04:54:19.105Z,100449.59
2023-03-17T04:56:51.108Z,100450.69
2023-03-17T04:59:20.535Z,100456.06
2023-03-17T05:01:49.970Z,100446.03
2023-03-17T05:04:30.720Z,100445.47
2023-03-17T05:07:01.345Z,100441.56
2023-03-17T05:09:31.131Z,100428.97
2023-03-17T05:12:03.105Z,100433.28
2023-03-17T05:14:32.592Z,100433.69
2023-03-17T05:17:01.984Z,100428.78
2023-03-17T05:19:31.378Z,100427.72
2023-03-17T05:22:01.133Z,100432.13
2023-03-17T05:24:30.601Z,100430.25
2023-03-17T05:26:59.993Z,100427.78
2023-03-17T05:29:31.989Z,100428.88
2023-03-17T05:32:01.409Z,100423.47
2023-03-17T05:34:31.274Z,100409.34
2023-03-17T05:37:00.856Z,100412.88
2023-03-17T05:39:30.237Z,100414.34
2023-03-17T05:41:59.701Z,100410.53
2023-03-17T05:44:31.728Z,100406.41
2023-03-17T05:47:02.972Z,100405.13
2023-03-17T05:49:32.499Z,100407.66
2023-03-17T05:52:02.093Z,100411.50
2023-03-17T05:54:31.473Z,100403.84
2023-03-17T05:57:01.061Z,100395.81
2023-03-17T05:59:36.268Z,100395.97
2023-03-17T06:02:05.736Z,100388.03
2023-03-17T06:04:35.664Z,100392.34
2023-03-17T06:07:05.082Z,100393.66
2023-03-17T06:09:34.797Z,100404.81
2023-03-17T06:12:04.374Z,100401.88
2023-03-17T06:14:36.675Z,100410.81
2023-03-17T06:17:06.364Z,100409.84
2023-03-17T06:19:35.818Z,100403.16
2023-03-17T06:22:05.507Z,100407.47
2023-03-17T06:24:34.953Z,100417.41
2023-03-17T06:27:04.370Z,100409.84
2023-03-17T06:29:36.604Z,100403.84
2023-03-17T06:32:19.449Z,100411.13
2023-03-17T06:34:50.051Z,100401.97
2023-03-17T06:37:19.455Z,100409.75
2023-03-17T06:39:48.839Z,100406.78
2023-03-17T06:42:19.249Z,100405.41
2023-03-17T06:44:52.546Z,100410.31
2023-03-17T06:47:24.785Z,100407.88
2023-03-17T06:49:55.499Z,100412.69
2023-03-17T06:52:24.916Z,100414.56
2023-03-17T06:54:54.331Z,100422.50
2023-03-17T06:57:24.215Z,100417.19
2023-03-17T06:59:56.552Z,100416.28
2023-03-17T07:02:26.170Z,100423.81
2023-03-17T07:04:57.792Z,100429.72
2023-03-17T07:07:27.307Z,100434.94
2023-03-17T07:09:56.770Z,100432.19
2023-03-17T07:12:26.143Z,100431.66
2023-03-17T07:14:58.104Z,100430.19
2023-03-17T07:17:27.585Z,100428.53
2023-03-17T07:19:57.006Z,100422.91
2023-03-17T07:22:26.416Z,100411.22
2023-03-17T07:24:55.933Z,100418.69
2023-03-17T07:27:26.485Z,100430.47
2023-03-17T07:30:00.517Z,100436.94
2023-03-17T07:32:29.965Z,100438.00
2023-03-17T07:34:59.521Z,100447.13
2023-03-17T07:37:32.298Z,100435.78
2023-03-17T07:40:01.967Z,100442.34
2023-03-17T07:42:31.636Z,100443.66
2023-03-17T07:45:04.141Z,100454.09
2023-03-17T07:47:33.599Z,100459.47
2023-03-17T07:50:03.198Z,100446.88
2023-03-17T07:52:32.597Z,100445.47
2023-03-17T07:55:02.624Z,100444.88
2023-03-17T07:57:32.126Z,100444.09
2023-03-17T08:00:04.160Z,100451.16
2023-03-17T08:02:33.892Z,100465.03
2023-03-17T08:05:03.343Z,100462.00
2023-03-17T08:07:33.401Z,100479.13
2023-03-17T08:10:03.268Z,100480.28
2023-03-17T08:12:32.850Z,100483.25
2023-03-17T08:15:04.874Z,100481.50
2023-03-17T08:17:34.260Z,100470.78
2023-03-17T08:20:04.720Z,100480.06
2023-03-17T08:22:34.430Z,100482.75
2023-03-17T08:25:03.819Z,100488.38
2023-03-17T08:27:33.987Z,100486.94
2023-03-17T08:30:06.838Z,100501.59
2023-03-17T08:32:37.016Z,100516.50
2023-03-17T08:35:06.871Z,100520.84
2023-03-17T08:37:37.867Z,100532.34
2023-03-17T08:40:10.040Z,100537.38
2023-03-17T08:42:40.238Z,100535.28
2023-03-17T08:45:12.865Z,100542.28
2023-03-17T08:47:42.510Z,100543.97
2023-03-17T08:50:15.600Z,100535.16
2023-03-17T08:52:45.647Z,100551.19
2023-03-17T08:55:15.399Z,100558.88
2023-03-17T08:57:45.093Z,100571.06
2023-03-17T09:00:20.572Z,100563.50
2023-03-17T09:02:51.458Z,100571.34
2023-03-17T09:05:21.825Z,100577.16
2023-03-17T09:07:52.560Z,100561.91
2023-03-17T09:10:23.655Z,100546.94
2023-03-17T09:12:53.403Z,100544.31
2023-03-17T09:15:25.460Z,100562.38
2023-03-17T09:17:55.065Z,100572.81
2023-03-17T09:20:24.430Z,100568.25
2023-03-17T09:22:54.347Z,100578.47
2023-03-17T09:25:23.793Z,100568.22
2023-03-17T09:27:53.778Z,100559.13
2023-03-17T09:30:27.000Z,100547.03
2023-03-17T09:32:56.491Z,100564.25
2023-03-17T09:35:28.105Z,100558.34
2023-03-17T09:37:57.518Z,100561.16
2023-03-17T09:40:35.896Z,100569.19
2023-03-17T09:43:11.925Z,100560.53
2023-03-17T09:45:45.190Z,100562.53
2023-03-17T09:48:21.471Z,100555.38
2023-03-17T09:50:55.156Z,100552.56
2023-03-17T09:53:27.160Z,100542.41
2023-03-17T09:55:58.875Z,100538.16
2023-03-17T09:58:31.719Z,100550.16
2023-03-17T10:01:05.313Z,100552.47
2023-03-17T10:03:35.318Z,100548.63
2023-03-17T10:06:19.521Z,100545.31
2023-03-17T10:08:54.159Z,100533.22
2023-03-17T10:11:29.535Z,100538.53
2023-03-17T10:14:03.764Z,100536.94
2023-03-17T10:16:41.787Z,100544.91
2023-03-17T10:19:19.302Z,100537.47
2023-03-17T10:21:52.754Z,100539.88
2023-03-17T10:24:22.349Z,100546.06
2023-03-17T10:26:53.441Z,100548.19
2023-03-17T10:29:24.197Z,100540.50
2023-03-17T10:31:58.536Z,100538.38
2023-03-17T10:34:30.293Z,100541.50
2023-03-17T10:37:04.303Z,100544.78
2023-03-17T10:39:34.879Z,100536.06
2023-03-17T10:42:12.243Z,100545.03
2023-03-17T10:44:44.982Z,100534.16
2023-03-17T10:47:35.886Z,100523.78
2023-03-17T10:50:14.124Z,100516.81
2023-03-17T10:52:43.983Z,100503.94
2023-03-17T10:55:17.035Z,100496.44
2023-03-17T10:57:56.987Z,100489.53
2023-03-17T11:00:27.644Z,100495.13
2023-03-17T11:03:01.368Z,100493.88
2023-03-17T11:05:32.090Z,100493.13
2023-03-17T11:08:10.942Z,100494.00
2023-03-17T11:10:42.631Z,100491.00
2023-03-17T11:13:12.412Z,100493.41
2023-03-17T11:15:44.562Z,100475.19
2023-03-17T11:18:23.949Z,100481.78
2023-03-17T11:20:57.367Z,100477.38
2023-03-17T11:23:47.912Z,100470.00
2023-03-17T11:26:44.582Z,100456.34
2023-03-17T11:29:24.705Z,100465.00
2023-03-17T11:32:02.220Z,100442.13
2023-03-17T11:34:43.483Z,100439.56
2023-03-17T11:37:21.786Z,100431.34
2023-03-17T11:39:57.545Z,100416.31
2023-03-17T11:42:29.220Z,100424.72
2023-03-17T11:45:16.492Z,100416.56
2023-03-17T11:47:55.356Z,100416.31
2023-03-17T11:50:31.943Z,100418.34
2023-03-17T11:53:11.385Z,100424.75
2023-03-17T11:55:46.274Z,100422.53
2023-03-17T11:58:21.357Z,100423.75
2023-03-17T12:00:54.981Z,100420.88
2023-03-17T12:03:31.427Z,100415.69
2023-03-17T12:06:05.714Z,100424.69
2023-03-17T12:08:39.701Z,100415.28
2023-03-17T12:11:12.098Z,100410.56
2023-03-17T12:13:46.613Z,100418.66
2023-03-17T12:16:19.321Z,100418.00
2023-03-17T12:18:53.409Z,100405.25
2023-03-17T12:21:31.013Z,100404.63
2023-03-17T12:24:04.412Z,100399.94
2023-03-17T12:26:38.273Z,100394.03
2023-03-17T12:29:13.955Z,100385.22
2023-03-17T12:31:48.125Z,100361.44
2023-03-17T12:34:23.330Z,100359.34
2023-03-17T12:36:55.661Z,100351.59
2023-03-17T12:39:28.226Z,100344.53
2023-03-17T12:42:19.189Z,100353.66
2023-03-17T12:45:03.048Z,100342.31
2023-03-17T12:47:57.064Z,100339.13
2023-03-17T12:50:49.938Z,100325.84
2023-03-17T12:53:29.647Z,100318.66
2023-03-17T12:56:02.539Z,100294.28
2023-03-17T12:58:35.264Z,100290.00
2023-03-17T13:01:12.530Z,100265.63
2023-03-17T13:03:49.789Z,100277.63
2023-03-17T13:06:22.528Z,100293.78
2023-03-17T13:08:55.795Z,100292.06
2023-03-17T13:11:30.169Z,100306.38
2023-03-17T13:14:09.853Z,100293.06
2023-03-17T13:16:41.643Z,100315.53
2023-03-17T13:19:23.309Z,100319.22
2023-03-17T13:22:26.413Z,100329.19
2023-03-17T13:25:16.675Z,100349.97
2023-03-17T13:27:50.030Z,100350.66
2023-03-17T13:30:44.854Z,100343.00
2023-03-17T13:33:24.081Z,100321.88
2023-03-17T13:36:02.502Z,100314.41
2023-03-17T13:38:40.285Z,100324.16
2023-03-17T13:41:40.462Z,100312.28
2023-03-17T13:44:28.167Z,100308.78
2023-03-17T13:46:57.827Z,100308.72
2023-03-17T13:49:32.259Z,100300.03
2023-03-17T13:52:06.489Z,100304.28
2023-03-17T13:54:38.322Z,100296.72
2023-03-17T13:57:26.840Z,100294.88
2023-03-17T14:00:02.862Z,100295.66
2023-03-17T14:02:34.566Z,100284.50
2023-03-17T14:05:06.927Z,100278.66
2023-03-17T14:07:45.615Z,100259.56
2023-03-17T14:10:20.838Z,100261.31
2023-03-17T14:12:54.732Z,100275.22
2023-03-17T14:15:30.693Z,100266.47
2023-03-17T14:18:03.910Z,100283.72
2023-03-17T14:20:33.698Z,100276.81
2023-03-17T14:23:05.604Z,100280.13
2023-03-17T14:25:37.365Z,100293.97
2023-03-17T14:28:10.966Z,100283.72
2023-03-17T14:30:43.832Z,100280.13
2023-03-17T14:33:20.522Z,100274.28
2023-03-17T14:35:53.926Z,100278.38
2023-03-17T14:38:25.805Z,100271.31
2023-03-17T14:41:04.382Z,100285.81
2023-03-17T14:43:34.480Z,100295.22
2023-03-17T14:46:08.015Z,100290.03
2023-03-17T14:48:39.064Z,100293.50
2023-03-17T14:51:11.437Z,100286.91
2023-03-17T14:53:43.408Z,100279.34
2023-03-17T14:56:12.988Z,100285.22
2023-03-17T14:58:44.854Z,100289.94
2023-03-17T15:01:19.592Z,100294.19
2023-03-17T15:03:57.540Z,100291.63
2023-03-17T15:06:28.404Z,100284.78
2023-03-17T15:09:01.356Z,100291.31
2023-03-17T15:11:39.484Z,100295.53
2023-03-17T15:14:21.023Z,100305.03
2023-03-17T15:16:55.279Z,100307.56
2023-03-17T15:19:28.916Z,100314.97
2023-03-17T15:22:00.570Z,100323.84
2023-03-17T15:24:44.121Z,100323.63
2023-03-17T15:27:17.761Z,100321.75
2023-03-17T15:29:48.405Z,100325.16
2023-03-17T15:32:22.122Z,100326.78
2023-03-17T15:34:52.880Z,100327.63
2023-03-17T15:37:24.198Z,100334.63
2023-03-17T15:39:55.196Z,100339.44
2023-03-17T15:42:27.226Z,100340.25
2023-03-17T15:44:56.942Z,100339.25
2023-03-17T15:47:31.091Z,100331.41
2023-03-17T15:50:02.483Z,100324.59
2023-03-17T15:52:32.000Z,100325.19
2023-03-17T15:55:03.937Z,100322.53
2023-03-17T15:57:34.484Z,100316.38
2023-03-17T16:00:04.479Z,100315.22
2023-03-17T16:02:38.511Z,100313.38
2023-03-17T16:05:18.452Z,100308.22
2023-03-17T16:07:48.404Z,100303.13
2023-03-17T16:10:19.463Z,100300.28
2023-03-17T16:12:49.627Z,100307.19
2023-03-17T16:15:23.258Z,100309.88
2023-03-17T16:17:58.390Z,100307.16
2023-03-17T16:20:29.788Z,100308.19
2023-03-17T16:23:01.969Z,100305.59
2023-03-17T16:25:36.874Z,100307.31
2023-03-17T16:28:17.012Z,100318.56
2023-03-17T16:30:47.085Z,100330.53
2023-03-17T16:33:22.471Z,100344.81
2023-03-17T16:35:53.371Z,100348.88
2023-03-17T16:38:24.797Z,100359.13
2023-03-17T16:40:55.969Z,100356.38
2023-03-17T16:43:27.925Z,100352.06
2023-03-17T16:45:59.011Z,100360.59
2023-03-17T16:48:32.092Z,100373.44
2023-03-17T16:51:01.715Z,100373.22
2023-03-17T16:53:31.405Z,100381.75
2023-03-17T16:56:00.901Z,100391.97
2023-03-17T16:58:32.808Z,100392.78
2023-03-17T17:01:04.896Z,100409.03
2023-03-17T17:03:37.894Z,100409.81
2023-03-17T17:06:08.795Z,100414.84
2023-03-17T17:08:38.514Z,100420.72
2023-03-17T17:11:08.164Z,100421.47
2023-03-17T17:13:37.627Z,100422.28
2023-03-17T17:16:07.588Z,100423.97
2023-03-17T17:18:39.662Z,100416.00
2023-03-17T17:21:09.140Z,100415.91
2023-03-17T17:23:38.560Z,100423.53
2023-03-17T17:26:08.491Z,100414.84
2023-03-17T17:28:39.442Z,100402.81
2023-03-17T17:31:09.857Z,100388.31
2023-03-17T17:33:42.274Z,100384.72
2023-03-17T17:36:16.927Z,100376.94
2023-03-17T17:38:46.707Z,100333.66
2023-03-17T17:41:17.129Z,100318.84
2023-03-17T17:43:46.760Z,100361.00
2023-03-17T17:46:19.328Z,100381.34
2023-03-17T17:48:51.685Z,100395.94
2023-03-17T17:51:21.115Z,100407.00
2023-03-17T17:53:51.680Z,100413.78
2023-03-17T17:56:21.214Z,100429.22
2023-03-17T17:58:50.749Z,100442.09
2023-03-17T18:01:22.540Z,100441.25
2023-03-17T18:03:54.601Z,100438.63
2023-03-17T18:06:24.066Z,100442.09
2023-03-17T18:08:55.393Z,100443.78
2023-03-17T18:11:24.831Z,100443.84
2023-03-17T18:13:54.260Z,100450.66
2023-03-17T18:16:23.768Z,100443.78
2023-03-17T18:18:55.803Z,100445.47
2023-03-17T18:21:25.284Z,100453.25
2023-03-17T18:23:55.615Z,100453.88
2023-03-17T18:26:25.580Z,100449.63
2023-03-17T18:28:55.322Z,100455.66
2023-03-17T18:31:27.186Z,100458.97
2023-03-17T18:34:01.383Z,100458.75
2023-03-17T18:36:31.320Z,100453.38
2023-03-17T18:39:00.852Z,100463.72
2023-03-17T18:41:30.802Z,100463.63
2023-03-17T18:44:00.250Z,100460.03
2023-03-17T18:46:29.673Z,100460.06
2023-03-17T18:49:01.802Z,100449.84
2023-03-17T18:51:31.402Z,100444.84
2023-03-17T18:54:01.010Z,100455.03
2023-03-17T18:56:30.910Z,100460.97
2023-03-17T18:59:01.527Z,100466.63
2023-03-17T19:01:31.357Z,100458.09
2023-03-17T19:04:04.721Z,100455.44
2023-03-17T19:06:35.482Z,100466.16
2023-03-17T19:09:04.936Z,100457.53
2023-03-17T19:11:34.667Z,100454.00
2023-03-17T19:14:04.308Z,100453.81
2023-03-17T19:16:33.919Z,100443.88
2023-03-17T19:19:06.640Z,100435.03
2023-03-17T19:21:36.790Z,100433.41
2023-03-17T19:24:09.766Z,100428.19
2023-03-17T19:26:41.721Z,100438.91
2023-03-17T19:29:12.162Z,100431.41
2023-03-17T19:31:42.544Z,100426.69
2023-03-17T19:34:16.288Z,100427.09
2023-03-17T19:36:46.964Z,100421.19
2023-03-17T19:39:16.806Z,100405.50
2023-03-17T19:41:47.452Z,100392.50
2023-03-17T19:44:17.116Z,100378.75
2023-03-17T19:46:46.536Z,100380.38
2023-03-17T19:49:21.336Z,100376.81
2023-03-17T19:51:51.152Z,100382.03
2023-03-17T19:54:23.445Z,100387.22
2023-03-17T19:56:53.007Z,100387.03
2023-03-17T19:59:22.910Z,100380.00
2023-03-17T20:01:52.635Z,100384.31
2023-03-17T20:04:24.687Z,100386.56
2023-03-17T20:06:55.766Z,100383.97
2023-03-17T20:09:26.939Z,100382.81
2023-03-17T20:11:56.804Z,100371.63
2023-03-17T20:14:26.825Z,100364.66
2023-03-17T20:16:56.694Z,100356.78
2023-03-17T20:19:29.220Z,100351.59
2023-03-17T20:21:58.704Z,100339.28
2023-03-17T20:24:29.230Z,100347.66
2023-03-17T20:26:59.745Z,100332.81
2023-03-17T20:29:29.397Z,100342.16
2023-03-17T20:31:58.922Z,100348.31
2023-03-17T20:34:31.849Z,100352.41
2023-03-17T20:37:02.163Z,100360.97
2023-03-17T20:39:32.486Z,100355.72
2023-03-17T20:42:02.164Z,100355.72
2023-03-17T20:44:31.588Z,100348.03
2023-03-17T20:47:01.010Z,100346.34
2023-03-17T20:49:33.248Z,100347.34
2023-03-17T20:52:02.703Z,100341.06
2023-03-17T20:54:32.615Z,100331.56
2023-03-17T20:57:02.112Z,100329.47
2023-03-17T20:59:31.631Z,100318.25
2023-03-17T21:02:02.093Z,100315.88
2023-03-17T21:04:34.535Z,100298.31
2023-03-17T21:07:03.917Z,100281.00
2023-03-17T21:09:34.364Z,100273.97
2023-03-17T21:12:06.190Z,100265.19
2023-03-17T21:14:35.628Z,100264.09
2023-03-17T21:17:05.070Z,100256.25
2023-03-17T21:19:37.225Z,100247.41
2023-03-17T21:22:07.166Z,100251.97
2023-03-17T21:24:39.793Z,100250.34
2023-03-17T21:27:12.168Z,100239.69
2023-03-17T21:29:42.540Z,100243.41
2023-03-17T21:32:12.423Z,100237.31
2023-03-17T21:34:44.919Z,100235.56
2023-03-17T21:37:16.177Z,100236.19
2023-03-17T21:39:45.924Z,100232.22
2023-03-17T21:42:15.583Z,100246.28
2023-03-17T21:44:45.852Z,100238.75
2023-03-17T21:47:15.330Z,100242.63
2023-03-17T21:49:47.305Z,100225.88
2023-03-17T21:52:16.947Z,100205.50
2023-03-17T21:54:46.300Z,100202.22
2023-03-17T21:57:16.677Z,100207.66
2023-03-17T21:59:46.577Z,100204.41
2023-03-17T22:02:17.574Z,100193.94
2023-03-17T22:04:49.809Z,100214.72
2023-03-17T22:07:19.539Z,100211.84
2023-03-17T22:09:49.144Z,100216.94
2023-03-17T22:12:19.256Z,100216.84
2023-03-17T22:14:48.679Z,100223.69
2023-03-17T22:17:18.056Z,100213.59
2023-03-17T22:19:50.188Z,100217.09
2023-03-17T22:22:20.520Z,100199.25
2023-03-17T22:24:50.368Z,100214.50
2023-03-17T22:27:20.695Z,100206.91
2023-03-17T22:29:50.288Z,100205.28
2023-03-17T22:32:19.699Z,100207.19
2023-03-17T22:34:53.123Z,100213.19
2023-03-17T22:37:22.544Z,100215.81
2023-03-17T22:39:52.150Z,100223.50
2023-03-17T22:42:21.683Z,100226.28
2023-03-17T22:44:51.074Z,100219.50
2023-03-17T22:47:20.482Z,100216.88
2023-03-17T22:49:52.637Z,100226.22
2023-03-17T22:52:22.088Z,100215.03
2023-03-17T22:54:51.493Z,100199.84
2023-03-17T22:57:21.035Z,100201.72
2023-03-17T22:59:52.256Z,100205.97
2023-03-17T23:02:21.803Z,100220.38
2023-03-17T23:04:54.284Z,100208.41
2023-03-17T23:07:23.702Z,100227.69
2023-03-17T23:09:53.143Z,100220.00
2023-03-17T23:12:24.746Z,100223.38
2023-03-17T23:14:54.175Z,100221.78
2023-03-17T23:17:23.720Z,100235.56
2023-03-17T23:19:55.915Z,100245.69
2023-03-17T23:22:25.351Z,100247.22
2023-03-17T23:24:54.760Z,100235.34
2023-03-17T23:27:24.659Z,100246.69
2023-03-17T23:29:54.092Z,100232.13
2023-03-17T23:32:23.515Z,100232.03
2023-03-17T23:34:55.478Z,100228.50
2023-03-17T23:37:24.901Z,100223.34
2023-03-17T23:39:55.005Z,100223.50
2023-03-17T23:42:24.953Z,100224.84
2023-03-17T23:44:54.777Z,100217.06
2023-03-17T23:47:24.263Z,100215.53
2023-03-17T23:49:56.493Z,100216.72
2023-03-17T23:52:26.325Z,100210.44
2023-03-17T23:54:55.978Z,100203.75
2023-03-17T23:57:25.619Z,100204.63
2023-03-17T23:59:55.345Z,100207.97
